Time;durP1;ratioP1;P1;durP2;ratioP2;P2;SDS_P1;SDS_P2;PMS_P1;PMS_P2;Temp;Humidity;BMP_temperature;BMP_pressure;BME280_temperature;BME280_humidity;BME280_pressure;Samples;Min_cycle;Max_cycle;Signal;HPM_P1;HPM_P2
2022/08/07 00:00:53;;;;;;;2.47;2.38;;;;;;;22.78;52.41;94175.03;2618251;47;20149;-78
2022/08/07 00:03:23;;;;;;;2.65;2.55;;;;;;;23.15;52.23;94221.84;2617994;47;20145;-79
2022/08/07 00:05:52;;;;;;;3.13;2.75;;;;;;;23.56;51.92;94223.78;2617973;54;20172;-78
2022/08/07 00:08:21;;;;;;;5.10;2.63;;;;;;;23.82;50.81;94205.78;2617995;47;20149;-78
2022/08/07 00:10:53;;;;;;;3.35;3.05;;;;;;;23.60;50.85;94215.03;2618315;39;20523;-79
2022/08/07 00:13:23;;;;;;;3.47;2.50;;;;;;;22.90;52.24;94174.75;2617916;54;20670;-78
2022/08/07 00:15:53;;;;;;;4.40;2.80;;;;;;;22.57;54.34;94215.13;2617981;47;20148;-79
2022/08/07 00:18:24;;;;;;;2.38;2.28;;;;;;;21.81;56.60;94223.75;2617854;47;20676;-79
2022/08/07 00:20:53;;;;;;;2.88;2.67;;;;;;;20.62;59.12;94185.97;2618141;54;20144;-78
2022/08/07 00:23:22;;;;;;;2.60;2.40;;;;;;;20.96;59.48;94231.53;2617865;54;20199;-78
2022/08/07 00:25:53;;;;;;;2.83;2.60;;;;;;;20.48;58.48;94117.84;2617829;47;20762;-79
2022/08/07 00:28:23;;;;;;;2.58;2.40;;;;;;;21.73;57.80;94244.78;2617914;39;20602;-78
2022/08/07 00:30:53;;;;;;;2.95;2.75;;;;;;;21.81;55.98;94201.41;2617452;54;20252;-79
2022/08/07 00:33:25;;;;;;;3.15;2.92;;;;;;;21.81;56.13;94209.34;2617733;54;20149;-79
2022/08/07 00:35:54;;;;;;;2.22;2.13;;;;;;;22.60;54.66;94222.28;2618130;54;20644;-78
2022/08/07 00:38:23;;;;;;;2.45;2.25;;;;;;;22.57;53.07;94134.31;2617434;54;20156;-78
2022/08/07 00:40:55;;;;;;;2.80;2.55;;;;;;;23.29;51.39;94163.72;2617515;39;20533;-78
2022/08/07 00:43:24;;;;;;;3.13;2.53;;;;;;;23.43;51.60;94243.59;2618031;54;20149;-77
2022/08/07 00:45:53;;;;;;;3.33;2.90;;;;;;;21.94;55.97;94224.97;2617271;47;20145;-78
2022/08/07 00:48:22;;;;;;;2.28;2.00;;;;;;;22.86;53.27;94192.16;2617499;47;20220;-78
2022/08/07 00:50:51;;;;;;;2.90;2.65;;;;;;;22.99;51.96;94158.66;2617440;47;20701;-78
2022/08/07 00:53:22;;;;;;;2.20;2.10;;;;;;;23.59;50.96;94207.84;2617783;39;20495;-78
2022/08/07 00:55:51;;;;;;;2.88;2.67;;;;;;;23.66;50.48;94194.63;2617386;47;20144;-78
2022/08/07 00:58:24;;;;;;;2.95;2.75;;;;;;;23.23;52.34;94227.44;2617451;54;20149;-79
2022/08/07 01:00:53;;;;;;;3.95;3.20;;;;;;;21.96;54.74;94178.81;2617749;39;20556;-78
2022/08/07 01:03:23;;;;;;;2.78;2.58;;;;;;;21.73;57.26;94239.00;2617575;54;20137;-79
2022/08/07 01:05:54;;;;;;;2.60;2.50;;;;;;;21.48;56.08;94140.75;2617432;54;20138;-79
2022/08/07 01:08:23;;;;;;;2.22;2.13;;;;;;;22.72;53.90;94196.03;2617532;54;20160;-79
2022/08/07 01:10:52;;;;;;;1.83;1.73;;;;;;;22.69;53.23;94191.78;2616747;54;20688;-79
2022/08/07 01:13:24;;;;;;;2.60;2.47;;;;;;;22.18;55.36;94229.59;2617336;54;20272;-79
2022/08/07 01:15:53;;;;;;;2.63;2.42;;;;;;;21.37;57.98;94240.31;2617379;47;20160;-79
2022/08/07 01:18:22;;;;;;;2.95;2.65;;;;;;;21.47;57.55;94227.91;2617367;54;20149;-79
2022/08/07 01:20:56;;;;;;;2.47;2.35;;;;;;;21.30;57.97;94212.38;2617379;47;20149;-79
2022/08/07 01:23:29;;;;;;;2.75;2.55;;;;;;;21.33;58.66;94246.13;2617550;54;20156;-79
2022/08/07 10:42:09;;;;;;;2.88;2.72;;;;;;;31.58;33.63;94383.59;2609971;31;20909;-79
2022/08/07 10:44:45;;;;;;;3.60;3.30;;;;;;;30.78;34.76;94376.78;2617429;54;20168;-79
2022/08/07 10:47:24;;;;;;;2.47;2.28;;;;;;;30.60;34.53;94346.28;2616895;54;20145;-78
2022/08/07 10:50:03;;;;;;;2.95;2.75;;;;;;;30.46;35.77;94368.09;2617051;54;20674;-78
2022/08/07 10:52:39;;;;;;;3.47;2.53;;;;;;;29.62;37.40;94326.84;2617022;54;20163;-79
2022/08/07 10:55:15;;;;;;;3.15;2.95;;;;;;;30.45;36.46;94377.69;2616772;47;20734;-82
2022/08/07 10:57:58;;;;;;;3.03;2.83;;;;;;;30.34;36.86;94381.06;2616852;54;20156;-83
2022/08/07 11:00:32;;;;;;;3.60;3.17;;;;;;;30.33;36.09;94317.63;2616538;54;20156;-83
2022/08/07 11:03:09;;;;;;;2.70;2.47;;;;;;;30.52;36.21;94361.94;2616531;54;20183;-82
2022/08/07 11:05:50;;;;;;;3.13;2.90;;;;;;;30.51;36.10;94356.91;2616558;47;20153;-84
2022/08/07 11:08:31;;;;;;;3.58;3.38;;;;;;;30.18;36.25;94305.94;2616512;47;20152;-84
2022/08/07 11:11:07;;;;;;;3.25;3.05;;;;;;;28.94;36.20;94125.06;2616346;54;20198;-84
2022/08/07 11:13:53;;;;;;;3.42;3.22;;;;;;;29.77;36.47;94256.84;2616628;54;20153;-83
2022/08/07 11:16:31;;;;;;;2.83;2.63;;;;;;;29.18;37.20;94274.13;2616537;54;20164;-83
2022/08/07 11:19:09;;;;;;;3.47;3.03;;;;;;;29.09;38.35;94337.25;2616862;39;21024;-83
2022/08/07 11:21:48;;;;;;;3.47;3.28;;;;;;;29.15;38.97;94380.69;2617003;39;20311;-86
2022/08/07 11:24:23;;;;;;;2.50;2.30;;;;;;;28.50;38.59;94221.00;2617043;39;20599;-83
2022/08/07 11:26:58;;;;;;;2.85;2.67;;;;;;;29.07;38.14;94250.56;2616306;54;20171;-83
2022/08/07 11:29:35;;;;;;;3.20;3.00;;;;;;;29.39;37.62;94311.84;2614885;54;20191;-83
2022/08/07 11:32:12;;;;;;;3.50;2.97;;;;;;;29.32;37.38;94282.22;2616668;47;20174;-82
2022/08/07 11:35:21;;;;;;;2.60;2.40;;;;;;;28.07;37.03;94076.53;2617199;47;20153;-81
2022/08/07 11:38:12;;;;;;;3.60;3.20;;;;;;;29.50;37.60;94339.78;2617775;39;20554;-82
2022/08/07 11:41:03;;;;;;;2.80;2.60;;;;;;;28.09;37.63;94117.22;2617276;54;20169;-84
2022/08/07 11:43:36;;;;;;;3.45;3.25;;;;;;;30.03;37.74;94329.28;2617787;31;20607;-79
2022/08/07 11:46:24;;;;;;;2.20;2.05;;;;;;;29.35;37.93;94321.47;2617133;54;20152;-84
2022/08/07 11:49:08;;;;;;;3.00;2.70;;;;;;;28.56;38.51;94203.28;2617287;54;20256;-84
2022/08/07 11:51:56;;;;;;;3.97;2.95;;;;;;;28.47;39.90;94259.75;2617293;54;20160;-87
2022/08/07 11:54:39;;;;;;;3.95;3.72;;;;;;;28.16;39.90;94242.81;2617160;54;20149;-84
2022/08/07 11:57:23;;;;;;;3.42;3.17;;;;;;;28.42;39.89;94278.91;2617310;54;20209;-85
2022/08/07 12:00:33;;;;;;;3.80;3.60;;;;;;;26.90;40.89;94103.19;2617205;47;20148;-85
2022/08/07 12:03:38;;;;;;;4.32;4.00;;;;;;;28.43;41.76;94335.69;2617264;47;20388;-86
2022/08/07 12:06:30;;;;;;;3.65;3.45;;;;;;;28.53;40.94;94315.56;2618764;39;20561;-87
2022/08/07 12:09:11;;;;;;;3.25;2.95;;;;;;;28.21;41.06;94267.41;2618509;47;20256;-89
2022/08/07 12:11:49;;;;;;;3.15;2.95;;;;;;;28.60;39.45;94278.81;2619517;54;20160;-86
2022/08/07 12:14:22;;;;;;;2.80;2.63;;;;;;;28.77;40.00;94292.69;2617989;47;20167;-79
2022/08/07 12:16:55;;;;;;;3.47;3.20;;;;;;;28.40;41.68;94390.38;2617822;50;20152;-80
2022/08/07 12:19:38;;;;;;;5.32;3.40;;;;;;;28.95;41.58;94391.06;2617978;47;20157;-84
2022/08/07 12:22:14;;;;;;;5.60;2.85;;;;;;;29.25;40.86;94389.00;2619210;47;20651;-86
2022/08/07 12:27:41;;;;;;;4.13;3.05;;;;;;;28.77;39.57;94293.41;2616815;47;20149;-81
2022/08/07 12:30:11;;;;;;;3.83;3.53;;;;;;;28.32;40.84;94276.41;2618148;47;20148;-86
2022/08/07 12:32:45;;;;;;;4.50;4.10;;;;;;;27.87;41.24;94220.03;2618340;54;20213;-83
2022/08/07 12:35:18;;;;;;;3.45;3.10;;;;;;;27.42;41.47;94168.75;2618477;47;20144;-84
2022/08/07 12:37:51;;;;;;;3.35;3.15;;;;;;;28.04;40.42;94148.00;2617784;47;20157;-84
2022/08/07 12:40:23;;;;;;;3.70;3.40;;;;;;;29.24;39.77;94311.78;2619029;54;20168;-85
2022/08/07 12:42:55;;;;;;;2.80;2.60;;;;;;;29.51;39.53;94317.84;2617813;47;20175;-80
2022/08/07 12:45:28;;;;;;;2.67;2.45;;;;;;;29.70;39.55;94344.66;2617777;47;20151;-83
2022/08/07 12:48:04;;;;;;;2.83;2.70;;;;;;;29.35;39.51;94303.97;2617668;47;20153;-83
2022/08/07 12:50:38;;;;;;;3.90;2.85;;;;;;;29.03;38.48;94250.03;2617752;47;20164;-81
2022/08/07 12:53:16;;;;;;;2.17;2.08;;;;;;;29.22;37.99;94238.97;2617513;47;20713;-82
2022/08/07 12:55:52;;;;;;;2.25;2.15;;;;;;;28.83;38.36;94207.94;2617943;54;20156;-83
2022/08/07 12:58:23;;;;;;;2.85;2.65;;;;;;;29.44;38.00;94330.59;2617669;46;20231;-84
2022/08/07 13:01:02;;;;;;;3.20;3.00;;;;;;;28.03;38.61;94140.03;2617580;47;20145;-82
2022/08/07 13:03:56;;;;;;;4.05;3.65;;;;;;;28.74;38.67;94236.72;2616837;47;20161;-86
2022/08/07 13:06:48;;;;;;;3.25;2.95;;;;;;;29.08;37.96;94225.03;2618444;39;20545;-82
2022/08/07 13:09:29;;;;;;;3.25;3.05;;;;;;;29.44;37.40;94240.84;2617692;47;20153;-81
2022/08/07 13:12:09;;;;;;;2.88;2.67;;;;;;;29.72;37.18;94273.81;2617317;47;20156;-85
2022/08/07 13:14:47;;;;;;;4.13;3.58;;;;;;;29.86;37.88;94340.28;2618132;47;20706;-79
2022/08/07 13:17:22;;;;;;;2.97;2.53;;;;;;;29.83;37.97;94344.09;2617252;54;20730;-78
2022/08/07 13:19:59;;;;;;;3.05;2.85;;;;;;;29.65;36.55;94322.31;2617682;46;20190;-79
2022/08/07 13:22:38;;;;;;;2.75;2.55;;;;;;;29.38;36.35;94340.34;2617748;46;20175;-83
2022/08/07 13:25:13;;;;;;;4.90;3.53;;;;;;;29.16;36.56;94237.03;2618213;47;20168;-84
2022/08/07 13:27:46;;;;;;;2.80;2.60;;;;;;;30.22;36.47;94334.94;2617674;47;20178;-81
2022/08/07 13:30:16;;;;;;;2.55;2.35;;;;;;;29.34;35.40;94163.25;2618010;46;20174;-79
2022/08/07 13:32:51;;;;;;;3.83;2.55;;;;;;;30.60;34.51;94334.56;2617613;54;20659;-82
2022/08/07 13:35:29;;;;;;;2.80;2.60;;;;;;;30.42;35.24;94309.16;2617313;54;20167;-81
2022/08/07 13:38:13;;;;;;;2.90;2.70;;;;;;;29.54;35.60;94158.66;2618103;54;20167;-81
2022/08/07 13:40:56;;;;;;;4.68;3.10;;;;;;;30.57;34.33;94312.81;2617720;54;20263;-80
2022/08/07 13:43:27;;;;;;;2.60;2.40;;;;;;;30.46;34.78;94285.59;2617527;54;20670;-79
2022/08/07 13:46:00;;;;;;;3.03;2.83;;;;;;;30.93;35.28;94330.69;2617426;47;20679;-78
2022/08/07 13:48:32;;;;;;;2.88;2.67;;;;;;;30.86;34.84;94344.22;2617640;47;20255;-78
2022/08/07 13:51:02;;;;;;;2.85;2.65;;;;;;;30.89;35.13;94319.22;2617575;47;20663;-79
2022/08/07 13:53:37;;;;;;;2.35;2.25;;;;;;;30.26;36.32;94336.94;2616752;54;20160;-79
2022/08/07 13:56:13;;;;;;;8.05;4.30;;;;;;;29.83;36.57;94277.66;2618369;39;20595;-80
2022/08/07 14:01:27;;;;;;;3.70;3.20;;;;;;;29.80;36.74;94299.00;2617738;47;20159;-79
2022/08/07 14:03:57;;;;;;;2.70;2.50;;;;;;;29.74;36.20;94294.16;2617490;47;20157;-78
2022/08/07 14:06:33;;;;;;;3.33;3.13;;;;;;;29.84;36.19;94305.34;2617902;54;20259;-82
2022/08/07 14:09:06;;;;;;;2.45;1.70;;;;;;;29.83;35.93;94303.22;2617342;47;20156;-83
2022/08/07 14:11:53;;;;;;;2.50;2.40;;;;;;;29.20;36.34;94274.75;2617592;54;20164;-79
2022/08/07 14:14:29;;;;;;;7.57;2.78;;;;;;;29.63;36.87;94328.25;2617570;54;20249;-80
2022/08/07 14:17:00;;;;;;;2.53;2.33;;;;;;;29.37;35.87;94332.34;2617619;54;20149;-84
2022/08/07 14:19:38;;;;;;;3.40;3.03;;;;;;;29.04;36.16;94286.44;2617419;47;20172;-84
2022/08/07 14:22:29;;;;;;;2.90;2.70;;;;;;;29.11;36.26;94313.84;2618182;54;20179;-80
2022/08/07 14:25:08;;;;;;;2.88;2.67;;;;;;;29.04;36.11;94338.91;2617758;47;20145;-80
2022/08/07 14:27:41;;;;;;;3.08;2.88;;;;;;;28.21;37.38;94232.47;2617934;46;20172;-79
2022/08/07 14:30:12;;;;;;;3.17;2.78;;;;;;;28.83;38.83;94339.09;2617593;54;20263;-81
2022/08/07 14:32:44;;;;;;;2.90;2.70;;;;;;;28.59;39.33;94343.72;2617646;54;20183;-82
2022/08/07 14:35:20;;;;;;;3.47;3.15;;;;;;;27.90;40.24;94334.84;2617267;47;20190;-82
2022/08/07 14:38:08;;;;;;;2.83;2.63;;;;;;;27.06;40.93;94281.34;2617294;54;20151;-82
2022/08/07 14:40:46;;;;;;;2.97;2.88;;;;;;;26.82;41.61;94291.63;2617463;54;20192;-86
2022/08/07 14:43:18;;;;;;;4.07;3.47;;;;;;;26.88;42.87;94349.53;2617407;47;20224;-86
2022/08/07 14:45:50;;;;;;;3.17;2.88;;;;;;;27.08;42.75;94298.69;2617513;47;20145;-82
2022/08/07 14:48:25;;;;;;;3.17;2.97;;;;;;;27.10;42.77;94290.63;2617273;54;20152;-85
2022/08/07 14:50:57;;;;;;;3.38;3.10;;;;;;;27.55;43.13;94339.09;2618191;47;20191;-86
2022/08/07 14:53:32;;;;;;;3.83;3.53;;;;;;;26.92;43.88;94278.94;2617835;47;20160;-85
2022/08/07 14:56:11;;;;;;;3.25;3.05;;;;;;;27.79;43.35;94325.81;2617997;47;20148;-85
2022/08/07 14:58:44;;;;;;;3.67;3.38;;;;;;;27.89;43.12;94331.22;2617905;47;20153;-85
2022/08/07 15:01:27;;;;;;;3.30;3.10;;;;;;;26.99;42.43;94205.31;2618098;39;20528;-85
2022/08/07 15:04:01;;;;;;;3.30;3.10;;;;;;;26.66;42.96;94205.75;2616841;54;20161;-84
2022/08/07 15:06:34;;;;;;;2.83;2.63;;;;;;;26.92;43.24;94235.34;2617736;39;20546;-83
2022/08/07 15:09:14;;;;;;;3.63;3.33;;;;;;;27.30;42.40;94286.25;2617077;54;20157;-83
2022/08/07 15:11:59;;;;;;;3.03;2.72;;;;;;;25.46;42.04;94041.66;2616879;47;20689;-83
2022/08/07 15:21:23;;;;;;;3.38;3.08;;;;;;;25.74;42.91;94098.00;2613564;54;20996;-82
2022/08/07 15:23:57;;;;;;;3.58;3.35;;;;;;;27.24;43.04;94310.44;2615595;47;20155;-83
2022/08/07 15:26:37;;;;;;;3.40;2.85;;;;;;;26.85;43.92;94241.38;2616480;47;20153;-82
2022/08/07 15:29:11;;;;;;;3.40;3.20;;;;;;;27.50;43.26;94305.81;2616396;47;20248;-83
2022/08/07 15:31:42;;;;;;;3.17;2.97;;;;;;;27.63;42.71;94302.47;2616851;47;20156;-82
2022/08/07 15:34:12;;;;;;;3.33;3.13;;;;;;;27.82;42.87;94303.16;2617663;39;20566;-79
2022/08/07 15:36:41;;;;;;;3.28;3.08;;;;;;;27.63;42.69;94303.16;2616071;47;20200;-79
2022/08/07 15:39:12;;;;;;;3.58;3.33;;;;;;;27.61;42.51;94277.06;2617153;54;20149;-77
2022/08/07 15:42:01;;;;;;;3.30;3.10;;;;;;;27.14;42.92;94272.31;2617237;47;20195;-78
2022/08/07 15:44:46;;;;;;;3.45;3.22;;;;;;;27.70;42.31;94278.19;2617013;47;20174;-78
2022/08/07 15:47:17;;;;;;;3.50;3.30;;;;;;;27.73;41.90;94299.88;2616885;47;20156;-79
2022/08/07 15:49:48;;;;;;;3.45;3.17;;;;;;;27.43;43.02;94310.47;2616761;47;20167;-79
2022/08/07 15:52:23;;;;;;;3.30;3.10;;;;;;;27.14;42.97;94304.28;2616821;47;20190;-79
2022/08/07 15:54:55;;;;;;;3.50;3.25;;;;;;;26.94;43.36;94288.31;2616791;47;20155;-79
2022/08/07 15:57:28;;;;;;;3.42;3.13;;;;;;;27.44;43.53;94322.81;2616560;47;20443;-79
2022/08/07 16:00:00;;;;;;;3.85;3.47;;;;;;;27.35;43.91;94334.03;2616905;54;20133;-78
2022/08/07 16:02:32;;;;;;;3.03;2.80;;;;;;;26.98;43.69;94270.00;2616824;54;20763;-79
2022/08/07 16:05:03;;;;;;;3.00;2.67;;;;;;;27.41;44.03;94333.81;2617035;54;20157;-81
2022/08/07 16:07:35;;;;;;;4.03;3.72;;;;;;;26.97;43.98;94301.28;2617233;39;20541;-80
2022/08/07 16:10:18;;;;;;;3.38;3.08;;;;;;;26.79;43.72;94261.94;2617115;47;20149;-79
2022/08/07 16:12:59;;;;;;;7.25;4.55;;;;;;;27.14;44.72;94331.16;2616904;54;20228;-80
2022/08/07 16:15:43;;;;;;;3.95;3.70;;;;;;;26.98;45.37;94320.13;2616505;39;20565;-84
2022/08/07 16:18:22;;;;;;;3.22;2.92;;;;;;;27.14;44.79;94339.19;2617840;47;20647;-85
2022/08/07 16:21:00;;;;;;;4.15;3.85;;;;;;;25.72;44.81;94178.56;2617879;47;20171;-81
2022/08/07 16:23:55;;;;;;;3.00;2.80;;;;;;;26.40;45.24;94271.31;2617901;54;20224;-81
2022/08/07 16:26:41;;;;;;;3.78;3.35;;;;;;;26.32;44.65;94244.75;2617734;47;20172;-80
2022/08/07 16:29:23;;;;;;;3.67;3.38;;;;;;;27.03;44.90;94338.84;2617699;54;20145;-79
2022/08/07 16:32:01;;;;;;;4.38;4.07;;;;;;;26.76;45.03;94307.09;2617991;46;20166;-78
2022/08/07 16:34:44;;;;;;;3.55;3.35;;;;;;;26.61;45.04;94317.78;2617710;47;20742;-81
2022/08/07 16:37:50;;;;;;;4.90;3.30;;;;;;;26.73;45.38;94326.06;2617315;47;20985;-81
2022/08/07 16:41:04;;;;;;;3.60;3.40;;;;;;;26.26;44.82;94273.94;2617480;47;20887;-81
2022/08/07 16:44:01;;;;;;;3.38;3.13;;;;;;;26.82;44.41;94350.44;2618813;31;20671;-81
2022/08/07 16:46:47;;;;;;;3.70;3.13;;;;;;;26.57;44.29;94328.81;2617949;46;20157;-82
2022/08/07 16:49:44;;;;;;;2.97;2.78;;;;;;;26.73;43.93;94323.16;2618193;39;20644;-81
2022/08/07 16:52:22;;;;;;;3.50;3.30;;;;;;;26.62;44.76;94345.34;2617743;54;20162;-83
2022/08/07 16:55:02;;;;;;;3.92;3.45;;;;;;;26.60;45.03;94351.22;2617938;54;20153;-85
2022/08/07 16:57:37;;;;;;;4.10;3.80;;;;;;;25.44;45.63;94149.00;2618429;47;20172;-85
2022/08/07 17:00:10;;;;;;;3.60;3.28;;;;;;;26.77;44.05;94311.41;2618065;47;20207;-84
2022/08/07 17:02:42;;;;;;;3.40;3.20;;;;;;;27.70;43.81;94353.81;2618255;47;20160;-86
2022/08/07 17:05:21;;;;;;;3.85;3.55;;;;;;;27.88;43.46;94326.91;2618440;47;20149;-81
2022/08/07 17:07:53;;;;;;;3.10;2.90;;;;;;;28.26;43.08;94362.56;2618400;54;20712;-81
2022/08/07 17:10:37;;;;;;;3.35;3.15;;;;;;;27.86;44.56;94335.75;2618382;47;20263;-80
2022/08/07 17:13:39;;;;;;;3.95;3.75;;;;;;;27.82;45.12;94343.91;2618530;51;20156;-81
2022/08/07 17:16:13;;;;;;;3.25;3.05;;;;;;;27.77;45.01;94354.28;2618101;47;20224;-81
2022/08/07 17:18:50;;;;;;;4.05;3.58;;;;;;;27.30;47.26;94399.66;2617937;54;20160;-81
2022/08/07 17:21:24;;;;;;;3.78;3.45;;;;;;;27.18;46.74;94383.34;2618295;47;20160;-80
2022/08/07 17:24:01;;;;;;;3.38;3.08;;;;;;;27.03;46.53;94362.09;2618184;47;20267;-81
2022/08/07 17:26:38;;;;;;;2.90;2.70;;;;;;;27.36;45.91;94411.03;2618059;47;20176;-81
2022/08/07 17:29:14;;;;;;;3.72;3.42;;;;;;;27.80;44.88;94419.66;2618228;54;20140;-81
2022/08/07 17:31:52;;;;;;;2.85;2.60;;;;;;;27.43;45.30;94403.53;2618290;47;20164;-82
2022/08/07 17:34:36;;;;;;;2.97;2.78;;;;;;;26.86;46.26;94411.31;2618776;39;20553;-81
2022/08/07 17:37:19;;;;;;;2.72;2.60;;;;;;;26.61;46.31;94404.22;2618402;47;20164;-81
2022/08/07 17:39:56;;;;;;;3.28;3.08;;;;;;;26.04;47.15;94395.09;2618105;47;20236;-80
2022/08/07 17:42:52;;;;;;;2.97;2.78;;;;;;;26.49;47.37;94417.66;2618366;54;20157;-81
2022/08/07 17:45:24;;;;;;;2.92;2.72;;;;;;;26.11;47.35;94393.44;2618114;49;20152;-82
2022/08/07 17:48:01;;;;;;;2.40;2.20;;;;;;;26.57;45.67;94387.63;2617827;47;20165;-82
2022/08/07 17:50:41;;;;;;;4.32;2.72;;;;;;;26.46;46.57;94427.19;2618062;54;20356;-80
2022/08/07 17:53:22;;;;;;;3.20;2.90;;;;;;;26.19;46.42;94372.16;2618630;39;20549;-82
2022/08/07 17:56:00;;;;;;;3.25;3.05;;;;;;;26.31;47.44;94420.44;2618355;47;20715;-79
2022/08/07 17:58:37;;;;;;;4.60;3.20;;;;;;;26.14;47.80;94437.63;2618192;54;20155;-79
2022/08/07 18:01:17;;;;;;;4.25;3.92;;;;;;;25.63;49.22;94435.53;2618090;39;20211;-80
2022/08/07 18:03:53;;;;;;;3.72;3.42;;;;;;;25.14;50.05;94397.00;2617950;54;20161;-80
2022/08/07 18:06:29;;;;;;;3.90;3.53;;;;;;;25.27;50.40;94432.16;2617779;47;20784;-80
2022/08/07 18:09:01;;;;;;;3.83;3.53;;;;;;;25.47;50.10;94454.78;2618126;54;20153;-79
2022/08/07 18:11:35;;;;;;;3.83;3.63;;;;;;;25.52;50.27;94446.69;2618104;47;20176;-79
2022/08/07 18:14:16;;;;;;;3.70;3.40;;;;;;;25.43;49.97;94436.78;2617985;54;20157;-78
2022/08/07 18:16:48;;;;;;;2.90;2.70;;;;;;;25.73;49.70;94464.94;2618067;47;20171;-82
2022/08/07 18:19:26;;;;;;;4.60;3.60;;;;;;;25.89;49.58;94460.84;2618023;47;20153;-83
2022/08/07 18:22:00;;;;;;;4.28;3.88;;;;;;;25.66;49.46;94436.91;2618149;54;20140;-82
2022/08/07 18:24:42;;;;;;;3.45;3.15;;;;;;;25.21;50.46;94440.31;2618082;54;20152;-82
2022/08/07 18:27:18;;;;;;;5.15;4.72;;;;;;;25.44;50.30;94461.41;2617692;47;20149;-82
2022/08/07 18:30:05;;;;;;;4.25;3.95;;;;;;;25.42;51.01;94475.97;2617600;54;20203;-81
2022/08/07 18:33:18;;;;;;;3.50;3.20;;;;;;;25.46;49.58;94446.84;2617888;47;20252;-82
2022/08/07 18:36:00;;;;;;;4.10;3.53;;;;;;;25.27;50.05;94429.25;2617352;54;20257;-80
2022/08/07 18:38:44;;;;;;;3.50;3.20;;;;;;;25.60;50.15;94501.53;2617612;54;20156;-80
2022/08/07 18:41:21;;;;;;;3.88;3.58;;;;;;;25.79;50.44;94504.69;2617916;47;20188;-82
2022/08/07 18:44:00;;;;;;;4.57;4.20;;;;;;;26.13;49.13;94460.13;2618240;47;20171;-83
2022/08/07 18:46:39;;;;;;;3.58;3.28;;;;;;;26.20;49.34;94507.09;2618410;47;20175;-81
2022/08/07 18:49:21;;;;;;;4.75;4.35;;;;;;;26.26;49.91;94472.06;2617900;47;20136;-80
2022/08/07 18:51:59;;;;;;;3.85;3.45;;;;;;;26.89;48.76;94502.06;2617977;47;20141;-81
2022/08/07 18:54:39;;;;;;;5.32;4.18;;;;;;;26.99;48.90;94504.63;2617474;54;20179;-80
2022/08/07 18:57:23;;;;;;;4.63;4.05;;;;;;;26.77;49.32;94503.16;2617925;54;20160;-82
2022/08/07 19:00:04;;;;;;;3.83;3.53;;;;;;;27.15;49.46;94509.91;2617107;47;20231;-81
2022/08/07 19:02:42;;;;;;;3.50;3.30;;;;;;;26.97;48.62;94495.28;2617398;47;20180;-82
2022/08/07 19:05:21;;;;;;;4.05;3.65;;;;;;;27.10;48.99;94523.16;2617456;54;20144;-80
2022/08/07 19:07:58;;;;;;;5.03;4.10;;;;;;;27.05;48.49;94515.38;2617539;54;20256;-80
2022/08/07 19:10:32;;;;;;;6.47;3.95;;;;;;;26.76;50.72;94495.94;2617415;54;20160;-82
2022/08/07 19:13:09;;;;;;;5.32;4.13;;;;;;;26.44;51.48;94531.81;2617409;54;20179;-82
2022/08/07 19:15:47;;;;;;;3.88;3.58;;;;;;;25.64;53.53;94515.25;2617556;47;20152;-81
2022/08/07 19:18:24;;;;;;;5.03;4.63;;;;;;;25.45;54.46;94536.00;2617445;47;20162;-82
2022/08/07 19:21:02;;;;;;;4.32;4.03;;;;;;;24.96;54.06;94452.56;2617328;54;20137;-79
2022/08/07 19:23:39;;;;;;;4.50;4.10;;;;;;;25.39;54.08;94500.69;2617360;54;20275;-79
2022/08/07 19:26:11;;;;;;;4.78;4.38;;;;;;;24.73;57.55;94512.50;2617161;47;20156;-81
2022/08/07 19:28:52;;;;;;;6.50;4.55;;;;;;;24.38;58.75;94544.44;2616977;54;20183;-82
2022/08/07 19:31:30;;;;;;;5.57;4.20;;;;;;;23.99;60.36;94530.06;2616843;54;20157;-82
2022/08/07 19:34:01;;;;;;;4.78;4.35;;;;;;;23.62;60.31;94501.91;2616888;54;20262;-81
2022/08/07 19:36:32;;;;;;;5.60;5.20;;;;;;;23.90;59.99;94520.84;2616586;54;20145;-79
2022/08/07 19:39:03;;;;;;;4.57;4.28;;;;;;;23.85;59.11;94490.56;2617179;39;20561;-79
2022/08/07 19:41:41;;;;;;;4.65;4.35;;;;;;;24.37;58.95;94543.00;2616132;54;20387;-79
2022/08/07 19:44:15;;;;;;;5.35;4.72;;;;;;;24.04;59.16;94528.50;2616590;54;20245;-79
2022/08/07 19:46:48;;;;;;;5.05;4.65;;;;;;;24.01;58.68;94501.81;2616558;39;20579;-79
2022/08/07 19:49:19;;;;;;;4.75;4.35;;;;;;;24.00;57.94;94476.53;2617066;47;20241;-79
2022/08/07 19:51:49;;;;;;;5.05;4.53;;;;;;;24.22;58.18;94507.13;2617406;54;20187;-79
2022/08/07 19:54:19;;;;;;;4.70;4.30;;;;;;;24.69;57.39;94535.75;2617704;47;20664;-79
2022/08/07 19:56:51;;;;;;;4.95;4.55;;;;;;;24.49;57.25;94507.25;2617273;47;20676;-79
2022/08/07 19:59:26;;;;;;;4.90;4.57;;;;;;;24.84;57.92;94524.53;2617291;54;20175;-79
2022/08/07 20:01:59;;;;;;;3.85;3.55;;;;;;;25.13;56.48;94522.38;2617387;46;20779;-83
2022/08/07 20:04:33;;;;;;;5.22;4.40;;;;;;;24.96;55.76;94498.91;2617714;39;20566;-82
2022/08/07 20:07:04;;;;;;;4.57;4.15;;;;;;;24.78;57.23;94482.66;2616408;54;20147;-80
2022/08/07 20:09:35;;;;;;;5.47;5.07;;;;;;;24.59;57.82;94498.34;2617082;54;20396;-80
2022/08/07 20:12:05;;;;;;;4.55;4.18;;;;;;;24.63;56.79;94467.09;2616937;47;20256;-80
2022/08/07 20:14:41;;;;;;;4.82;4.43;;;;;;;23.46;61.51;94449.44;2617073;54;20149;-79
2022/08/07 20:17:12;;;;;;;4.72;4.32;;;;;;;23.16;63.34;94502.75;2617230;54;20659;-79
2022/08/07 20:19:44;;;;;;;4.07;3.67;;;;;;;22.76;63.65;94460.84;2616872;47;20714;-79
2022/08/07 20:22:15;;;;;;;4.85;4.40;;;;;;;23.22;62.99;94500.47;2617605;39;20539;-80
2022/08/07 20:24:49;;;;;;;6.40;5.18;;;;;;;23.00;62.88;94466.94;2616965;54;20164;-79
2022/08/07 20:27:18;;;;;;;4.03;3.72;;;;;;;23.43;62.25;94514.53;2616996;47;20153;-79
2022/08/07 20:29:57;;;;;;;4.53;4.13;;;;;;;23.13;61.21;94446.47;2616906;54;20157;-79
2022/08/07 20:32:32;;;;;;;4.72;4.32;;;;;;;24.00;59.64;94511.94;2617178;54;20179;-80
2022/08/07 20:35:06;;;;;;;5.18;4.78;;;;;;;24.15;57.78;94459.56;2617248;54;20187;-80
2022/08/07 20:37:40;;;;;;;4.25;3.95;;;;;;;24.21;58.70;94500.63;2617345;54;20148;-80
2022/08/07 20:40:14;;;;;;;4.32;4.03;;;;;;;24.69;56.74;94512.59;2617069;47;20183;-80
2022/08/07 20:42:50;;;;;;;4.63;3.92;;;;;;;24.44;55.44;94448.78;2617233;54;20157;-79
2022/08/07 20:45:24;;;;;;;6.15;4.40;;;;;;;25.06;53.64;94471.84;2617352;54;20155;-79
2022/08/07 20:47:55;;;;;;;5.15;4.40;;;;;;;25.60;52.62;94500.84;2617146;54;20251;-80
2022/08/07 20:50:27;;;;;;;4.53;3.47;;;;;;;25.87;52.02;94518.22;2617143;54;20694;-79
2022/08/07 20:52:57;;;;;;;4.22;3.90;;;;;;;25.90;51.94;94526.09;2617374;54;20157;-80
2022/08/07 20:55:27;;;;;;;4.30;4.03;;;;;;;26.07;51.96;94529.25;2616804;54;20141;-80
2022/08/07 20:57:59;;;;;;;4.25;3.90;;;;;;;25.59;53.80;94499.41;2617684;54;20672;-79
2022/08/07 21:00:40;;;;;;;5.05;4.55;;;;;;;25.49;52.81;94477.91;2617806;54;20167;-80
2022/08/07 21:03:09;;;;;;;3.60;3.38;;;;;;;25.54;53.26;94490.13;2617846;47;20190;-80
2022/08/07 21:05:42;;;;;;;4.88;3.95;;;;;;;25.82;52.69;94529.25;2617909;47;20156;-79
2022/08/07 21:08:13;;;;;;;4.90;4.50;;;;;;;25.35;52.92;94449.31;2618241;39;20584;-79
2022/08/07 21:10:44;;;;;;;4.38;4.03;;;;;;;25.62;52.93;94497.91;2617718;54;20159;-79
2022/08/07 21:13:16;;;;;;;4.43;4.05;;;;;;;25.24;56.11;94514.84;2617699;54;20152;-79
2022/08/07 21:15:50;;;;;;;4.85;4.43;;;;;;;24.96;55.63;94469.22;2617707;47;20137;-80
2022/08/07 21:18:23;;;;;;;4.22;3.85;;;;;;;25.33;53.93;94497.94;2617838;46;20167;-79
2022/08/07 21:20:55;;;;;;;4.30;4.00;;;;;;;25.38;53.19;94502.16;2617813;54;20160;-79
2022/08/07 21:23:36;;;;;;;4.82;3.45;;;;;;;25.56;53.21;94521.94;2617623;47;20768;-79
2022/08/07 21:26:22;;;;;;;11.70;4.40;;;;;;;25.37;53.14;94492.75;2617653;54;20158;-80
2022/08/07 21:28:57;;;;;;;4.22;3.92;;;;;;;25.08;55.78;94518.16;2617789;54;20144;-79
2022/08/07 21:31:41;;;;;;;6.85;4.20;;;;;;;24.99;56.34;94519.84;2617503;54;20679;-79
2022/08/07 21:34:16;;;;;;;4.85;4.50;;;;;;;25.16;54.43;94544.03;2617551;54;20287;-79
2022/08/07 21:36:54;;;;;;;4.75;4.28;;;;;;;24.35;57.64;94496.72;2617630;47;20153;-79
2022/08/07 21:39:32;;;;;;;7.38;3.90;;;;;;;24.34;55.83;94469.97;2617506;54;20149;-79
2022/08/07 21:42:08;;;;;;;4.07;3.67;;;;;;;25.14;54.63;94541.19;2617370;47;20192;-79
2022/08/07 21:44:47;;;;;;;5.22;4.82;;;;;;;24.55;56.77;94501.34;2617476;54;20228;-80
2022/08/07 21:47:26;;;;;;;4.38;3.97;;;;;;;24.70;56.20;94526.31;2617633;54;20702;-80